Time;durP1;ratioP1;P1;durP2;ratioP2;P2;SDS_P1;SDS_P2;PMS_P1;PMS_P2;Temp;Humidity;BMP_temperature;BMP_pressure;BME280_temperature;BME280_humidity;BME280_pressure;Samples;Min_cycle;Max_cycle;Signal;HPM_P1;HPM_P2
2024/02/16 00:01:25;;;;;;;4.33;3.90;;;9.60;58.00;;;;;;4912865;29;20234;-63
2024/02/16 00:03:51;;;;;;;4.43;4.03;;;9.70;57.90;;;;;;4913218;29;20288;-63
2024/02/16 00:06:18;;;;;;;4.10;3.80;;;9.70;57.70;;;;;;4911312;29;20214;-61
2024/02/16 00:08:44;;;;;;;5.20;4.30;;;9.60;57.90;;;;;;4916824;29;20244;-63
2024/02/16 00:11:11;;;;;;;4.93;4.43;;;9.60;57.70;;;;;;4916421;29;20239;-63
2024/02/16 00:13:38;;;;;;;5.30;4.00;;;9.70;57.50;;;;;;4916702;29;20269;-63
2024/02/16 00:16:04;;;;;;;4.90;4.47;;;9.70;57.00;;;;;;4915605;29;20304;-63
2024/02/16 00:18:31;;;;;;;4.73;4.33;;;9.70;57.00;;;;;;4906916;29;20208;-62
2024/02/16 00:20:57;;;;;;;4.63;4.23;;;9.70;57.00;;;;;;4907166;29;20219;-62
2024/02/16 00:23:25;;;;;;;6.97;4.33;;;9.60;57.30;;;;;;4913304;29;20319;-62
2024/02/16 00:25:51;;;;;;;7.77;6.00;;;9.60;57.70;;;;;;4909224;29;20698;-62
2024/02/16 00:28:18;;;;;;;6.53;5.53;;;9.60;57.70;;;;;;4908016;29;20347;-62
2024/02/16 00:30:46;;;;;;;5.80;4.83;;;9.50;58.10;;;;;;4917904;29;20217;-62
2024/02/16 00:33:13;;;;;;;7.40;4.70;;;9.50;58.10;;;;;;4920522;29;20220;-62
2024/02/16 00:35:40;;;;;;;6.37;4.77;;;9.40;58.40;;;;;;4907901;29;20208;-62
2024/02/16 00:38:06;;;;;;;6.37;4.77;;;9.40;58.40;;;;;;4908230;29;20222;-62
2024/02/16 00:40:33;;;;;;;5.50;5.00;;;9.30;58.30;;;;;;4911129;29;20248;-62
2024/02/16 00:42:59;;;;;;;5.40;4.83;;;9.40;58.40;;;;;;4914388;29;20232;-62
2024/02/16 00:45:26;;;;;;;5.20;4.70;;;9.30;58.30;;;;;;4913246;29;20212;-62
2024/02/16 00:47:53;;;;;;;7.33;5.17;;;9.40;58.40;;;;;;4916184;29;20254;-61
2024/02/16 00:50:19;;;;;;;6.80;5.50;;;9.30;58.30;;;;;;4908791;29;20281;-62
2024/02/16 00:52:46;;;;;;;5.70;5.03;;;9.20;58.40;;;;;;4915563;29;20227;-62
2024/02/16 00:55:13;;;;;;;5.90;4.30;;;9.20;58.20;;;;;;4908490;29;20241;-62
2024/02/16 00:57:39;;;;;;;6.97;4.63;;;9.30;58.30;;;;;;4910539;29;20239;-62
2024/02/16 01:00:06;;;;;;;5.77;4.70;;;9.40;58.40;;;;;;4916010;29;20213;-62
2024/02/16 01:02:33;;;;;;;5.40;4.90;;;9.30;58.30;;;;;;4915769;29;20450;-62
2024/02/16 01:05:01;;;;;;;5.70;5.07;;;9.20;58.20;;;;;;4911135;29;20233;-62
2024/02/16 01:07:28;;;;;;;6.17;5.00;;;9.10;58.80;;;;;;4918489;29;20223;-62
2024/02/16 01:09:56;;;;;;;6.37;4.53;;;9.10;58.80;;;;;;4917671;29;20211;-62
2024/02/16 01:12:22;;;;;;;5.70;4.73;;;9.30;58.30;;;;;;4917341;29;20606;-62
2024/02/16 01:14:49;;;;;;;5.50;4.67;;;9.40;58.00;;;;;;4903108;29;20209;-62
2024/02/16 01:17:15;;;;;;;4.90;4.40;;;9.50;57.60;;;;;;4908119;29;20216;-62
2024/02/16 01:19:42;;;;;;;5.57;5.03;;;9.50;57.40;;;;;;4911693;29;20213;-62
2024/02/16 01:22:08;;;;;;;7.27;4.90;;;9.30;57.60;;;;;;4910869;29;20661;-62
2024/02/16 01:24:35;;;;;;;5.20;4.40;;;9.30;58.00;;;;;;4915469;29;20242;-62
2024/02/16 01:27:01;;;;;;;5.13;4.37;;;9.30;57.90;;;;;;4909703;29;20212;-62
2024/02/16 01:29:28;;;;;;;5.40;4.90;;;9.20;57.90;;;;;;4914518;29;20216;-62
2024/02/16 01:31:54;;;;;;;5.30;4.80;;;9.30;57.70;;;;;;4907310;29;20252;-62
2024/02/16 01:34:21;;;;;;;5.23;4.27;;;9.30;57.70;;;;;;4910891;29;20675;-62
2024/02/16 01:36:47;;;;;;;5.17;4.43;;;9.40;57.00;;;;;;4909428;29;20212;-62
2024/02/16 01:39:14;;;;;;;5.00;4.50;;;9.30;57.30;;;;;;4919776;29;20721;-62
2024/02/16 01:41:40;;;;;;;4.93;4.47;;;9.40;56.90;;;;;;4911254;29;20342;-62
2024/02/16 01:44:07;;;;;;;4.90;4.40;;;9.30;57.10;;;;;;4918997;29;20286;-62
2024/02/16 01:46:34;;;;;;;7.17;4.73;;;9.20;57.30;;;;;;4914582;29;20202;-62
2024/02/16 01:49:01;;;;;;;4.90;4.40;;;9.20;57.50;;;;;;4909605;29;20211;-62
2024/02/16 01:51:28;;;;;;;5.30;4.50;;;9.20;57.40;;;;;;4915514;29;20279;-62
2024/02/16 01:53:55;;;;;;;5.27;4.30;;;9.10;57.40;;;;;;4919184;29;20243;-62
2024/02/16 01:56:22;;;;;;;5.40;4.30;;;9.20;56.90;;;;;;4919342;29;20297;-62
2024/02/16 01:58:49;;;;;;;5.60;4.67;;;9.30;56.60;;;;;;4918739;29;20721;-62
2024/02/16 02:01:15;;;;;;;5.30;4.50;;;9.40;56.80;;;;;;4914923;29;20319;-62
2024/02/16 02:03:42;;;;;;;4.53;4.20;;;9.30;56.80;;;;;;4910866;29;20235;-62
2024/02/16 02:06:08;;;;;;;5.33;4.60;;;9.30;56.90;;;;;;4911436;29;20591;-62
2024/02/16 02:08:35;;;;;;;5.20;4.53;;;9.30;57.00;;;;;;4910356;29;20694;-62
2024/02/16 02:11:02;;;;;;;4.93;4.40;;;9.40;56.80;;;;;;4913334;29;20276;-62
2024/02/16 02:13:29;;;;;;;4.60;4.20;;;9.30;56.60;;;;;;4917291;29;20216;-62
2024/02/16 02:15:55;;;;;;;4.73;4.30;;;9.30;56.60;;;;;;4918905;29;20225;-62
2024/02/16 02:18:22;;;;;;;5.60;5.07;;;9.30;57.10;;;;;;4918672;29;20216;-62
2024/02/16 02:20:49;;;;;;;6.07;4.80;;;9.30;56.90;;;;;;4916605;29;20216;-62
2024/02/16 02:23:15;;;;;;;5.10;4.60;;;9.30;56.80;;;;;;4910888;29;20738;-62
2024/02/16 02:25:41;;;;;;;5.00;4.53;;;9.30;56.70;;;;;;4913723;29;20216;-62
2024/02/16 02:28:08;;;;;;;4.90;4.40;;;9.30;56.50;;;;;;4910605;29;20639;-62
2024/02/16 02:30:35;;;;;;;5.53;4.60;;;9.30;56.60;;;;;;4919265;29;20238;-62
2024/02/16 02:33:01;;;;;;;5.10;4.60;;;9.30;56.70;;;;;;4910567;29;20289;-62
2024/02/16 02:35:27;;;;;;;4.90;4.20;;;9.30;56.50;;;;;;4917206;29;20264;-62
2024/02/16 02:37:54;;;;;;;5.40;4.90;;;9.30;56.70;;;;;;4911468;29;20255;-62
2024/02/16 02:40:20;;;;;;;5.53;5.03;;;9.10;57.40;;;;;;4918577;29;20271;-62
2024/02/16 02:42:47;;;;;;;8.27;4.60;;;9.20;57.30;;;;;;4910536;29;20255;-62
2024/02/16 02:45:13;;;;;;;6.63;4.87;;;9.30;56.80;;;;;;4913087;29;20239;-62
2024/02/16 02:47:40;;;;;;;4.83;4.43;;;9.10;57.50;;;;;;4918793;29;20212;-62
2024/02/16 02:50:07;;;;;;;4.90;4.40;;;9.30;56.80;;;;;;4917702;29;20268;-62
2024/02/16 02:52:33;;;;;;;4.40;4.00;;;9.30;55.80;;;;;;4905357;29;20657;-62
2024/02/16 02:55:00;;;;;;;5.13;4.50;;;9.30;56.00;;;;;;4917879;29;20217;-62
2024/02/16 02:57:26;;;;;;;4.70;4.27;;;9.40;55.60;;;;;;4917880;29;20297;-62
2024/02/16 02:59:52;;;;;;;5.00;4.37;;;9.40;55.70;;;;;;4913386;29;20219;-62
2024/02/16 03:02:19;;;;;;;5.23;4.67;;;9.30;56.10;;;;;;4911945;29;20261;-62
2024/02/16 03:04:45;;;;;;;5.50;4.80;;;9.30;56.30;;;;;;4917430;29;20319;-62
2024/02/16 03:07:12;;;;;;;4.87;4.40;;;9.30;56.90;;;;;;4909338;29;20678;-62
2024/02/16 03:09:38;;;;;;;5.13;4.57;;;9.30;57.10;;;;;;4917801;29;20211;-62
2024/02/16 03:12:05;;;;;;;5.90;4.70;;;9.30;57.00;;;;;;4914655;29;20250;-62
2024/02/16 03:14:31;;;;;;;5.10;4.60;;;9.10;57.00;;;;;;4915569;29;20200;-62
2024/02/16 03:16:58;;;;;;;4.97;4.47;;;9.10;57.50;;;;;;4917685;29;20694;-62
2024/02/16 03:19:25;;;;;;;6.07;4.73;;;9.00;57.50;;;;;;4918887;29;20300;-62
2024/02/16 03:21:51;;;;;;;4.70;4.30;;;9.00;57.30;;;;;;4915159;29;20230;-63
2024/02/16 03:24:18;;;;;;;5.37;4.87;;;8.90;57.50;;;;;;4917295;29;20274;-65
2024/02/16 03:26:45;;;;;;;5.63;4.40;;;8.80;57.80;;;;;;4914270;29;20687;-62
2024/02/16 03:29:11;;;;;;;5.33;4.50;;;8.90;57.20;;;;;;4912513;29;20216;-62
2024/02/16 03:31:38;;;;;;;4.97;4.53;;;9.00;57.10;;;;;;4911984;29;20257;-62
2024/02/16 03:34:04;;;;;;;4.53;4.13;;;9.00;57.10;;;;;;4909853;29;20307;-62
2024/02/16 03:36:31;;;;;;;4.80;4.30;;;8.90;57.50;;;;;;4912754;29;20246;-62
2024/02/16 03:38:58;;;;;;;4.73;4.23;;;8.90;57.50;;;;;;4917578;29;20303;-62
2024/02/16 03:41:25;;;;;;;6.80;4.63;;;8.90;57.60;;;;;;4917001;29;20228;-62
2024/02/16 03:43:53;;;;;;;5.37;4.53;;;8.80;57.50;;;;;;4917304;29;20310;-62
2024/02/16 03:46:20;;;;;;;6.47;4.40;;;8.80;57.80;;;;;;4917253;29;20216;-62
2024/02/16 03:48:46;;;;;;;5.43;3.90;;;8.70;57.80;;;;;;4917018;29;20635;-62
2024/02/16 03:51:13;;;;;;;4.83;4.00;;;8.60;57.90;;;;;;4911980;29;20731;-62
2024/02/16 03:53:39;;;;;;;4.50;4.10;;;8.80;57.80;;;;;;4913179;29;20692;-62
2024/02/16 03:56:07;;;;;;;4.47;4.07;;;9.00;57.00;;;;;;4917411;29;20216;-62
2024/02/16 03:58:33;;;;;;;4.90;4.20;;;9.00;56.70;;;;;;4916767;29;20220;-62
2024/02/16 04:01:00;;;;;;;5.77;4.10;;;9.10;56.30;;;;;;4912626;29;20210;-62
2024/02/16 04:03:27;;;;;;;4.77;4.03;;;8.90;57.10;;;;;;4908846;29;20667;-62
2024/02/16 04:05:54;;;;;;;5.20;4.70;;;8.90;57.20;;;;;;4911961;29;20257;-62
2024/02/16 04:08:20;;;;;;;4.63;4.17;;;8.90;57.10;;;;;;4909822;29;20589;-62
2024/02/16 04:10:47;;;;;;;5.17;4.67;;;8.80;57.80;;;;;;4914502;29;20293;-62
2024/02/16 04:13:13;;;;;;;5.40;4.27;;;8.70;57.80;;;;;;4914473;29;20294;-62
2024/02/16 04:15:40;;;;;;;6.93;4.17;;;8.80;57.80;;;;;;4916430;29;20291;-62
2024/02/16 04:18:06;;;;;;;4.67;4.20;;;9.00;56.70;;;;;;4916404;29;20279;-62
2024/02/16 04:20:33;;;;;;;4.60;4.20;;;9.00;56.90;;;;;;4910093;29;20276;-62
2024/02/16 04:22:59;;;;;;;4.90;4.40;;;9.10;56.70;;;;;;4916042;29;20259;-62
2024/02/16 04:25:26;;;;;;;4.77;4.17;;;9.10;56.70;;;;;;4913426;29;20318;-62
2024/02/16 04:27:52;;;;;;;5.93;4.10;;;9.20;56.20;;;;;;4908400;29;20595;-62
2024/02/16 04:30:19;;;;;;;5.10;4.23;;;9.20;55.60;;;;;;4916500;29;20295;-62
2024/02/16 04:32:46;;;;;;;5.00;4.37;;;9.20;55.20;;;;;;4910872;29;20261;-62
2024/02/16 04:35:12;;;;;;;5.23;4.70;;;9.30;55.20;;;;;;4915200;29;20671;-62
2024/02/16 04:37:39;;;;;;;4.93;4.37;;;9.20;55.90;;;;;;4908146;29;20220;-63
2024/02/16 04:40:06;;;;;;;5.30;4.33;;;9.10;56.20;;;;;;4916291;29;20221;-62
2024/02/16 04:42:32;;;;;;;4.50;4.00;;;9.20;56.30;;;;;;4916968;29;20235;-62
2024/02/16 04:44:59;;;;;;;4.97;4.23;;;9.10;56.50;;;;;;4909927;29;20235;-62
2024/02/16 04:47:25;;;;;;;4.17;3.80;;;8.90;56.30;;;;;;4919939;29;20215;-62
2024/02/16 04:49:52;;;;;;;4.17;3.77;;;9.10;55.50;;;;;;4916221;29;20209;-62
2024/02/16 04:52:18;;;;;;;5.10;3.90;;;9.10;55.00;;;;;;4901976;29;20251;-62
2024/02/16 04:54:45;;;;;;;4.23;3.47;;;9.10;54.70;;;;;;4915734;29;20268;-62
2024/02/16 04:57:11;;;;;;;5.80;3.53;;;9.20;54.50;;;;;;4907314;29;20253;-62
2024/02/16 04:59:38;;;;;;;5.60;3.47;;;9.20;54.50;;;;;;4915756;29;20286;-62
2024/02/16 05:02:06;;;;;;;4.97;4.13;;;9.20;54.60;;;;;;4911784;29;20235;-62
2024/02/16 05:04:33;;;;;;;5.33;4.23;;;9.20;54.20;;;;;;4915305;29;20328;-62
2024/02/16 05:07:00;;;;;;;4.70;4.23;;;9.20;54.20;;;;;;4906338;29;20640;-62
2024/02/16 05:09:27;;;;;;;3.93;3.50;;;9.30;54.20;;;;;;4906014;29;20631;-62
2024/02/16 05:11:54;;;;;;;4.83;4.07;;;9.30;54.10;;;;;;4914806;29;20318;-62
2024/02/16 05:14:20;;;;;;;5.43;3.77;;;9.30;54.40;;;;;;4915255;29;20215;-62
2024/02/16 05:16:47;;;;;;;5.13;4.00;;;9.20;54.40;;;;;;4901365;29;20675;-62
2024/02/16 05:19:13;;;;;;;4.30;3.90;;;9.20;54.40;;;;;;4913112;29;20208;-62
2024/02/16 05:21:40;;;;;;;4.77;4.27;;;9.20;54.40;;;;;;4912886;29;20220;-62
2024/02/16 05:24:06;;;;;;;4.33;3.93;;;9.20;54.50;;;;;;4915247;29;20276;-62
2024/02/16 05:26:33;;;;;;;4.00;3.60;;;9.00;54.30;;;;;;4914940;29;20216;-62
2024/02/16 05:28:59;;;;;;;5.07;3.97;;;9.00;54.60;;;;;;4914764;29;20219;-62
2024/02/16 05:31:26;;;;;;;9.70;4.43;;;9.00;55.10;;;;;;4915196;29;20236;-62
2024/02/16 05:33:52;;;;;;;5.20;4.20;;;9.00;55.10;;;;;;4915335;29;20696;-62
2024/02/16 05:36:20;;;;;;;5.43;3.50;;;9.10;54.50;;;;;;4915661;29;20209;-62
2024/02/16 05:38:46;;;;;;;5.97;3.60;;;9.20;54.10;;;;;;4906113;29;20220;-62
2024/02/16 05:41:13;;;;;;;4.80;4.00;;;9.10;54.40;;;;;;4915713;29;20231;-62
2024/02/16 05:43:39;;;;;;;6.77;3.90;;;9.10;55.00;;;;;;4910261;29;20220;-62
2024/02/16 05:46:06;;;;;;;4.90;4.20;;;9.20;55.00;;;;;;4915514;29;20646;-63
2024/02/16 05:48:34;;;;;;;4.70;3.80;;;9.10;55.00;;;;;;4915141;29;20304;-62
2024/02/16 05:51:02;;;;;;;5.50;4.33;;;9.10;55.30;;;;;;4914590;29;20212;-62
2024/02/16 05:53:28;;;;;;;7.13;4.00;;;9.30;55.10;;;;;;4913152;29;20222;-62
2024/02/16 05:55:55;;;;;;;5.93;3.67;;;9.30;55.20;;;;;;4911662;29;20238;-62
2024/02/16 05:58:21;;;;;;;7.90;3.70;;;9.40;54.00;;;;;;4913405;29;20274;-62
2024/02/16 06:00:48;;;;;;;9.67;4.17;;;9.40;54.10;;;;;;4915024;29;20582;-63
2024/02/16 06:03:15;;;;;;;4.13;3.73;;;9.50;54.00;;;;;;4917293;29;20247;-63
2024/02/16 06:05:43;;;;;;;7.37;4.33;;;9.50;54.00;;;;;;4915178;29;20240;-63
2024/02/16 06:08:10;;;;;;;8.13;4.47;;;9.30;53.90;;;;;;4905628;29;20276;-63
2024/02/16 06:10:37;;;;;;;5.33;4.30;;;9.30;54.30;;;;;;4913591;29;20207;-63
2024/02/16 06:13:03;;;;;;;7.13;3.73;;;9.30;54.10;;;;;;4909766;29;20295;-63
2024/02/16 06:15:30;;;;;;;5.33;3.90;;;9.30;53.90;;;;;;4906372;29;20246;-63
2024/02/16 06:17:57;;;;;;;9.07;4.30;;;9.30;53.90;;;;;;4914922;29;20268;-63
2024/02/16 06:20:23;;;;;;;4.27;3.53;;;9.30;53.90;;;;;;4911942;29;20219;-63
2024/02/16 06:22:50;;;;;;;6.60;4.50;;;9.40;54.00;;;;;;4911405;29;20231;-63
2024/02/16 06:25:16;;;;;;;5.07;3.87;;;9.40;53.60;;;;;;4914658;29;20323;-63
2024/02/16 06:27:43;;;;;;;6.77;3.97;;;9.50;53.50;;;;;;4918395;29;20215;-63
2024/02/16 06:30:12;;;;;;;8.20;4.20;;;9.40;54.00;;;;;;4916964;29;20288;-63
2024/02/16 06:32:40;;;;;;;6.47;3.90;;;9.50;53.80;;;;;;4917479;29;20228;-63
2024/02/16 06:35:07;;;;;;;8.13;3.80;;;9.50;53.40;;;;;;4918392;29;20226;-63
2024/02/16 06:37:33;;;;;;;6.93;4.03;;;9.50;53.50;;;;;;4916032;29;20239;-63
2024/02/16 06:40:00;;;;;;;6.93;3.60;;;9.50;53.50;;;;;;4911805;29;20267;-63
2024/02/16 06:42:26;;;;;;;4.67;3.67;;;9.50;53.60;;;;;;4917292;29;20590;-63
2024/02/16 06:44:53;;;;;;;3.87;3.47;;;9.60;53.70;;;;;;4905956;29;20225;-63
2024/02/16 06:47:20;;;;;;;6.47;3.47;;;9.50;53.60;;;;;;4911943;29;20276;-63
2024/02/16 06:49:47;;;;;;;4.87;2.80;;;9.70;52.60;;;;;;4910305;29;20216;-63
2024/02/16 06:52:13;;;;;;;3.67;3.10;;;9.70;51.70;;;;;;4910694;29;20236;-63
2024/02/16 06:54:40;;;;;;;4.77;3.07;;;9.80;51.50;;;;;;4915861;29;20591;-63
2024/02/16 06:57:06;;;;;;;3.57;2.70;;;9.70;50.80;;;;;;4917874;29;20216;-63
2024/02/16 06:59:33;;;;;;;3.83;2.97;;;9.80;50.90;;;;;;4917653;29;20216;-63
2024/02/16 07:02:00;;;;;;;4.60;3.10;;;9.70;51.00;;;;;;4913581;29;20283;-63
2024/02/16 07:04:26;;;;;;;5.10;3.20;;;9.70;51.10;;;;;;4919624;29;20302;-63
2024/02/16 07:06:53;;;;;;;3.73;3.20;;;9.80;50.70;;;;;;4918094;29;20218;-63
2024/02/16 07:09:21;;;;;;;3.87;2.97;;;9.90;51.40;;;;;;4910550;29;20635;-63
2024/02/16 07:11:50;;;;;;;5.67;3.93;;;9.90;50.90;;;;;;4907351;29;20250;-63
2024/02/16 07:14:16;;;;;;;6.37;3.10;;;9.90;50.80;;;;;;4918467;29;20363;-63
2024/02/16 07:16:43;;;;;;;8.60;4.23;;;9.90;51.00;;;;;;4917905;29;20217;-63
2024/02/16 07:19:09;;;;;;;3.73;3.03;;;10.00;50.30;;;;;;4907742;29;20215;-63
2024/02/16 07:21:36;;;;;;;6.70;3.33;;;10.10;49.80;;;;;;4908454;29;20231;-63
2024/02/16 07:24:02;;;;;;;10.03;4.43;;;10.20;49.20;;;;;;4912345;29;20244;-63
2024/02/16 07:26:29;;;;;;;4.63;3.03;;;10.20;49.20;;;;;;4912145;29;20322;-63
2024/02/16 07:28:56;;;;;;;5.10;3.27;;;10.20;49.20;;;;;;4917269;29;20307;-63
2024/02/16 07:31:22;;;;;;;5.83;2.90;;;10.30;49.30;;;;;;4911180;29;20659;-63
2024/02/16 07:33:49;;;;;;;3.40;3.10;;;10.30;49.30;;;;;;4905428;29;20216;-63
2024/02/16 07:36:17;;;;;;;6.77;3.40;;;10.40;49.00;;;;;;4912069;29;20249;-63
2024/02/16 07:38:44;;;;;;;5.37;3.17;;;10.40;49.40;;;;;;4910450;29;20247;-63
2024/02/16 07:41:10;;;;;;;3.40;3.00;;;10.50;49.30;;;;;;4916925;29;20280;-64
2024/02/16 07:43:38;;;;;;;3.00;2.80;;;10.50;48.70;;;;;;4917378;29;20240;-64
2024/02/16 07:46:05;;;;;;;4.40;3.40;;;10.60;48.40;;;;;;4912454;29;20284;-63
2024/02/16 07:48:31;;;;;;;3.83;2.80;;;10.60;48.40;;;;;;4920168;29;20272;-63
2024/02/16 07:51:02;;;;;;;5.57;3.00;;;10.70;48.00;;;;;;4913428;29;20233;-63
2024/02/16 07:53:28;;;;;;;3.90;3.23;;;10.70;48.00;;;;;;4915788;29;20319;-63
2024/02/16 07:55:55;;;;;;;4.37;3.00;;;10.70;48.40;;;;;;4921574;29;20243;-63
2024/02/16 07:58:22;;;;;;;3.77;2.73;;;10.80;46.70;;;;;;4913154;29;20579;-63
2024/02/16 08:00:49;;;;;;;3.97;3.23;;;10.90;47.20;;;;;;4911622;29;20257;-64
2024/02/16 08:03:15;;;;;;;3.10;2.80;;;10.90;47.60;;;;;;4912643;29;20689;-63
2024/02/16 08:05:42;;;;;;;3.17;2.87;;;10.80;48.00;;;;;;4910710;29;20720;-63
2024/02/16 08:08:08;;;;;;;5.43;3.53;;;10.90;47.60;;;;;;4909234;29;22843;-63
2024/02/16 08:10:35;;;;;;;6.33;2.80;;;11.10;47.40;;;;;;4913848;29;20308;-63
2024/02/16 08:13:02;;;;;;;5.83;3.00;;;11.10;46.80;;;;;;4916816;29;20246;-64
2024/02/16 08:15:28;;;;;;;4.47;2.77;;;11.10;47.90;;;;;;4916252;29;20202;-63
2024/02/16 08:17:55;;;;;;;3.77;2.60;;;11.20;46.60;;;;;;4916214;29;20209;-63
2024/02/16 08:20:22;;;;;;;4.27;3.10;;;11.20;47.00;;;;;;4916205;29;20209;-64
2024/02/16 08:22:59;;;;;;;3.77;3.30;;;11.10;46.80;;;;;;4948623;23;20239;-64
2024/02/16 08:25:27;;;;;;;5.60;3.17;;;11.20;46.80;;;;;;4932827;29;20233;-63
2024/02/16 08:28:00;;;;;;;3.90;3.30;;;11.30;46.70;;;;;;4928895;29;20216;-63
2024/02/16 08:30:46;;;;;;;;;;;;;;;;;;;;;
2024/02/16 08:33:13;;;;;;;7.60;3.57;;;11.50;45.80;;;;;;4920907;29;20224;-65
2024/02/16 08:38:20;;;;;;;9.27;3.37;;;11.80;44.10;;;;;;4913498;29;20225;-65
2024/02/16 08:40:47;;;;;;;7.17;3.60;;;11.80;44.80;;;;;;4915611;29;20206;-63
2024/02/16 08:43:14;;;;;;;7.10;3.03;;;11.80;43.80;;;;;;4915954;29;20223;-63
2024/02/16 08:45:42;;;;;;;3.47;3.07;;;12.00;43.50;;;;;;4912522;29;20234;-62
2024/02/16 08:48:09;;;;;;;4.57;3.00;;;12.10;43.70;;;;;;4910062;29;20215;-63
2024/02/16 08:50:35;;;;;;;5.70;3.10;;;12.30;43.00;;;;;;4913396;29;20229;-64
2024/02/16 08:53:02;;;;;;;7.00;2.87;;;12.50;42.70;;;;;;4914192;29;20609;-64
2024/02/16 08:55:28;;;;;;;9.23;3.20;;;12.60;41.60;;;;;;4915442;29;20207;-64
2024/02/16 08:57:55;;;;;;;3.90;2.50;;;12.70;41.80;;;;;;4904032;29;20303;-64
2024/02/16 09:00:23;;;;;;;4.73;3.03;;;12.80;40.40;;;;;;4915631;29;20277;-64
2024/02/16 09:02:49;;;;;;;6.83;3.40;;;12.80;40.40;;;;;;4904960;29;20223;-64
2024/02/16 09:05:18;;;;;;;5.50;3.10;;;12.90;40.50;;;;;;4906329;29;20238;-63
2024/02/16 09:07:45;;;;;;;9.27;3.63;;;13.20;39.70;;;;;;4903094;29;20551;-64
2024/02/16 09:10:11;;;;;;;9.63;3.57;;;13.50;39.30;;;;;;4917722;29;20631;-64
2024/02/16 09:12:38;;;;;;;5.80;3.63;;;13.50;39.40;;;;;;4922194;29;20237;-64
2024/02/16 09:15:05;;;;;;;8.27;3.70;;;13.30;39.40;;;;;;4903171;29;20748;-64
2024/02/16 09:17:32;;;;;;;6.37;2.83;;;13.30;39.60;;;;;;4911506;29;20585;-64
2024/02/16 09:19:58;;;;;;;4.77;3.80;;;13.30;38.90;;;;;;4901925;29;20243;-64
2024/02/16 09:22:25;;;;;;;6.27;3.10;;;13.50;39.80;;;;;;4905750;29;20236;-63
2024/02/16 09:24:51;;;;;;;7.40;3.13;;;13.60;39.20;;;;;;4913185;29;20272;-69
2024/02/16 09:27:19;;;;;;;3.93;2.80;;;13.90;40.00;;;;;;4903816;29;20216;-63
2024/02/16 09:29:46;;;;;;;4.13;2.43;;;14.10;37.20;;;;;;4923133;29;20304;-64
2024/02/16 09:32:12;;;;;;;4.70;3.20;;;14.30;36.40;;;;;;4918987;29;20234;-64
2024/02/16 09:34:39;;;;;;;4.93;2.97;;;14.20;37.60;;;;;;4919478;29;20208;-64
2024/02/16 09:37:06;;;;;;;5.90;2.60;;;14.30;37.40;;;;;;4922646;29;20239;-63
2024/02/16 09:39:34;;;;;;;4.33;2.90;;;14.80;36.40;;;;;;4922610;29;20217;-64
2024/02/16 09:42:00;;;;;;;6.07;2.40;;;15.20;35.20;;;;;;4907212;29;24727;-64
2024/02/16 09:44:27;;;;;;;4.93;2.73;;;14.90;35.90;;;;;;4918204;29;20220;-64
2024/02/16 09:46:53;;;;;;;4.23;2.63;;;14.90;35.60;;;;;;4920048;29;20237;-64
2024/02/16 09:49:20;;;;;;;5.70;2.80;;;14.80;35.50;;;;;;4923888;29;20208;-64
2024/02/16 09:51:47;;;;;;;2.90;2.27;;;15.00;35.00;;;;;;4924805;29;20316;-64
2024/02/16 09:54:13;;;;;;;5.87;2.37;;;15.70;34.80;;;;;;4922773;29;20213;-64
2024/02/16 09:56:40;;;;;;;5.27;2.70;;;16.40;33.30;;;;;;4918279;29;20309;-64
2024/02/16 09:59:08;;;;;;;5.50;2.80;;;16.50;32.70;;;;;;4920809;29;20260;-64
2024/02/16 10:01:34;;;;;;;5.83;2.77;;;16.80;32.70;;;;;;4917782;29;20256;-64
2024/02/16 10:04:01;;;;;;;4.53;3.17;;;16.90;32.00;;;;;;4932378;29;20587;-64
2024/02/16 10:06:27;;;;;;;5.53;2.80;;;16.90;31.40;;;;;;4922200;29;20226;-64
2024/02/16 10:08:54;;;;;;;6.40;2.77;;;16.80;31.20;;;;;;4932619;29;20304;-64
2024/02/16 10:11:20;;;;;;;3.67;2.70;;;16.80;31.70;;;;;;4931980;29;20240;-64
2024/02/16 10:13:47;;;;;;;5.50;2.10;;;16.80;31.40;;;;;;4925246;29;20214;-64
2024/02/16 10:16:14;;;;;;;4.43;2.53;;;16.90;30.20;;;;;;4912247;29;20274;-64
2024/02/16 10:18:40;;;;;;;3.00;2.13;;;17.10;30.30;;;;;;4921515;29;20213;-64
2024/02/16 10:21:07;;;;;;;3.23;2.13;;;17.60;29.80;;;;;;4922093;29;20245;-64
2024/02/16 10:23:34;;;;;;;7.30;2.87;;;17.60;28.40;;;;;;4928877;29;20243;-64
2024/02/16 10:26:00;;;;;;;2.93;2.23;;;17.70;29.40;;;;;;4911400;29;20228;-62
2024/02/16 10:28:30;;;;;;;3.57;2.07;;;18.00;29.00;;;;;;4914546;29;20297;-62
2024/02/16 10:30:56;;;;;;;2.90;2.10;;;18.10;28.70;;;;;;4910752;29;20251;-62
2024/02/16 10:33:24;;;;;;;1.83;1.67;;;18.70;28.30;;;;;;4917500;29;20371;-64
2024/02/16 10:35:50;;;;;;;2.80;1.60;;;18.60;28.40;;;;;;4932189;29;20210;-67
2024/02/16 10:38:18;;;;;;;6.77;2.57;;;18.40;28.70;;;;;;4928167;29;20209;-65
2024/02/16 10:40:45;;;;;;;1.80;1.70;;;18.50;28.80;;;;;;4925463;29;20216;-65
2024/02/16 10:43:11;;;;;;;2.87;1.90;;;18.50;29.90;;;;;;4918096;29;20229;-65
2024/02/16 10:45:38;;;;;;;2.67;1.80;;;18.80;29.00;;;;;;4915293;29;20720;-65
2024/02/16 10:48:04;;;;;;;1026.55;307.02;;;19.00;27.70;;;;;;4901418;29;20215;-65
2024/02/16 10:50:31;;;;;;;60.50;19.48;;;21.10;25.70;;;;;;4903931;29;20279;-63
2024/02/16 10:52:57;;;;;;;3.63;2.10;;;23.90;23.60;;;;;;4918054;29;20255;-63
2024/02/16 10:55:23;;;;;;;5.63;2.30;;;25.60;21.80;;;;;;4921812;29;20303;-63
2024/02/16 10:57:50;;;;;;;2.20;1.80;;;23.50;23.30;;;;;;4912594;29;20203;-63
2024/02/16 11:00:17;;;;;;;3.92;1.80;;;21.10;25.50;;;;;;4908274;29;20296;-62
2024/02/16 11:02:43;;;;;;;3.05;2.13;;;21.40;25.30;;;;;;4910366;29;20763;-64
2024/02/16 11:05:10;;;;;;;2.20;1.88;;;22.30;25.20;;;;;;4879255;29;20225;-62
2024/02/16 11:07:36;;;;;;;2.65;2.03;;;22.80;24.80;;;;;;4881310;29;20907;-63
2024/02/16 11:10:04;;;;;;;2.30;1.88;;;22.00;25.10;;;;;;4870993;29;20218;-62
2024/02/16 11:12:30;;;;;;;2.28;1.60;;;22.50;25.10;;;;;;4872234;29;20584;-63
2024/02/16 11:14:57;;;;;;;4.53;1.85;;;23.10;23.80;;;;;;4880927;29;20210;-62
2024/02/16 11:17:24;;;;;;;1.50;1.33;;;23.10;23.40;;;;;;4872076;29;20689;-63
2024/02/16 11:19:51;;;;;;;2.70;1.80;;;23.10;23.60;;;;;;4869779;29;20308;-63
2024/02/16 11:22:18;;;;;;;3.92;1.45;;;23.40;23.40;;;;;;4863116;29;20739;-63
2024/02/16 11:24:44;;;;;;;1.33;1.23;;;23.50;23.40;;;;;;4868730;29;20219;-63
2024/02/16 11:27:11;;;;;;;4.03;1.45;;;23.70;22.80;;;;;;4865773;29;20393;-62
2024/02/16 11:29:38;;;;;;;1.40;1.27;;;23.70;23.30;;;;;;4899798;29;21034;-63
2024/02/16 11:32:04;;;;;;;3.67;1.60;;;23.60;22.80;;;;;;4867672;29;20718;-62
2024/02/16 11:34:31;;;;;;;3.40;2.10;;;23.70;22.90;;;;;;4873793;29;21174;-63
2024/02/16 11:36:57;;;;;;;3.53;1.80;;;24.00;23.00;;;;;;4880099;29;20301;-63
2024/02/16 11:39:25;;;;;;;1.80;1.50;;;24.10;22.80;;;;;;4904710;29;20211;-63
2024/02/16 11:41:52;;;;;;;2.28;1.50;;;24.10;22.90;;;;;;4909193;29;20293;-63
2024/02/16 11:44:18;;;;;;;2.90;1.70;;;23.40;23.60;;;;;;4912377;29;20206;-64
2024/02/16 11:46:44;;;;;;;3.10;1.40;;;23.50;23.70;;;;;;4894821;29;21143;-63
2024/02/16 11:49:11;;;;;;;2.42;1.65;;;23.70;23.60;;;;;;4910167;29;20241;-64
2024/02/16 11:51:39;;;;;;;2.33;1.50;;;23.40;24.00;;;;;;4915776;29;20729;-65
2024/02/16 11:54:05;;;;;;;4.22;1.60;;;23.40;24.10;;;;;;4920728;29;20214;-65
2024/02/16 11:56:32;;;;;;;2.28;1.63;;;23.90;23.50;;;;;;4914714;29;20199;-64
2024/02/16 11:58:59;;;;;;;2.92;1.40;;;23.70;24.00;;;;;;4917793;29;20221;-64
2024/02/16 12:01:26;;;;;;;2.97;1.80;;;23.60;23.90;;;;;;4910992;29;20270;-64
2024/02/16 12:03:52;;;;;;;2.83;1.50;;;23.10;24.20;;;;;;4911007;29;20205;-64
2024/02/16 12:06:19;;;;;;;2.17;1.40;;;23.70;24.30;;;;;;4911169;29;20230;-64
2024/02/16 12:08:45;;;;;;;2.95;1.67;;;23.90;24.10;;;;;;4923177;29;20210;-64
2024/02/16 12:11:12;;;;;;;3.42;1.85;;;24.00;23.90;;;;;;4932558;29;20249;-64
2024/02/16 12:13:38;;;;;;;1.98;1.40;;;24.30;23.80;;;;;;4924418;29;20667;-64
2024/02/16 12:16:05;;;;;;;1.58;1.30;;;24.20;24.10;;;;;;4921881;29;20203;-64
2024/02/16 12:18:33;;;;;;;3.45;1.80;;;23.80;23.60;;;;;;4916001;29;20215;-64
2024/02/16 12:20:59;;;;;;;2.45;1.45;;;23.60;24.50;;;;;;4920189;29;20731;-64
2024/02/16 12:23:26;;;;;;;2.53;1.95;;;22.40;25.40;;;;;;4917608;29;20218;-64
2024/02/16 12:25:52;;;;;;;3.42;1.60;;;21.40;26.70;;;;;;4921926;29;20261;-64
2024/02/16 12:28:20;;;;;;;2.15;1.40;;;20.90;27.10;;;;;;4913960;29;20207;-64
2024/02/16 12:30:46;;;;;;;3.53;1.52;;;20.70;27.90;;;;;;4923520;29;20210;-63
2024/02/16 12:33:13;;;;;;;2.25;1.98;;;20.30;28.60;;;;;;4907580;29;20636;-64
2024/02/16 12:35:39;;;;;;;1.55;1.45;;;20.10;29.00;;;;;;4912840;29;20270;-64
2024/02/16 12:38:06;;;;;;;3.05;1.80;;;19.70;28.90;;;;;;4915953;29;20749;-64
2024/02/16 12:40:32;;;;;;;1.88;1.52;;;19.60;29.50;;;;;;4914324;29;20207;-64
2024/02/16 12:42:59;;;;;;;3.97;2.70;;;19.60;29.50;;;;;;4923328;29;20324;-65
2024/02/16 12:45:25;;;;;;;3.83;2.58;;;19.50;29.90;;;;;;4920414;29;20203;-64
2024/02/16 12:47:52;;;;;;;4.50;3.47;;;19.40;30.00;;;;;;4922859;29;20258;-63
2024/02/16 12:50:20;;;;;;;2.95;2.38;;;19.50;30.10;;;;;;4889561;29;20262;-64
2024/02/16 12:52:48;;;;;;;8.27;4.22;;;19.70;30.00;;;;;;4907729;29;20309;-64